Weather reports worldwide

Advertisment
Cadiz, Spain (8452): temperature & dewpoint: 07.12.2018 10:00:00 - 13.12.2018 10:00:00 (CET)Cadiz, Spain (8452): wind speed & gusts: 07.12.2018 10:00:00 - 13.12.2018 10:00:00 (CET)Cadiz, Spain (8452): wind direction: 07.12.2018 10:00:00 - 13.12.2018 10:00:00 (CET)Cadiz, Spain (8452): reduced air pressure: 07.12.2018 10:00:00 - 13.12.2018 10:00:00 (CET)Cadiz, Spain (8452): precipitation: 07.12.2018 10:00:00 - 13.12.2018 10:00:00 (CET)
Date & Time tt [°C] td [°C] ff [km/h] ff [kn] fx [km/h] fx [kn] dd ppp [hPa] rr [mm]
13.12.2018 10:00:00 16,3 12,2 22 12 48 26 WNW 1016,8 1,3
13.12.2018 09:00:00 16,6 15,0 29 15 52 28 SW 1016,5 1,2
13.12.2018 08:00:00 17,1 14,3 25 13 41 22 SSW 1016,1 0,0
13.12.2018 07:00:00 15,9 14,0 26 14 43 23 SSW 1016,8 -
13.12.2018 06:00:00 16,3 12,4 22 12 38 20 SW 1018,6 0,0
13.12.2018 05:00:00 16,6 12,5 17 9 32 17 SW 1019,1 0,0
13.12.2018 04:00:00 16,6 11,6 16 8 28 15 SW 1019,4 0,0
13.12.2018 03:00:00 16,4 11,3 10 6 23 12 WSW 1019,8 0,0
13.12.2018 02:00:00 16,2 10,9 16 9 26 14 W 1021,2 0,0
13.12.2018 01:00:00 15,8 10,5 9 5 16 9 SW 1020,9 -
13.12.2018 00:00:00 16,0 10,3 9 5 22 12 W 1021,7 0,0
12.12.2018 23:00:00 16,2 10,5 11 6 18 10 W 1022,1 0,0
12.12.2018 22:00:00 16,0 11,3 8 4 16 8 W 1022,4 0,0
12.12.2018 21:00:00 15,5 11,9 4 2 10 6 W 1022,3 0,0
12.12.2018 20:00:00 15,7 12,4 8 4 14 7 WNW 1022,5 0,0
12.12.2018 19:00:00 15,9 12,4 9 5 16 9 WNW 1022,7 -
12.12.2018 18:00:00 15,8 12,0 9 5 16 9 W 1022,3 0,0
12.12.2018 17:00:00 16,0 12,0 11 6 19 11 WNW 1022,3 0,0
12.12.2018 16:00:00 16,5 12,4 13 7 21 12 WNW 1022,1 0,0
12.12.2018 15:00:00 17,2 12,7 12 7 19 11 W 1022,2 0,0
12.12.2018 14:00:00 - - - - - - - - -
12.12.2018 13:00:00 - - - - - - - - -
12.12.2018 12:00:00 16,2 13,7 9 5 11 6 NNW 1024,2 0,0
12.12.2018 11:00:00 16,3 14,6 4 2 5 3 NNW 1024,5 0,0
12.12.2018 10:00:00 15,6 14,3 4 2 7 4 NNW 1024,2 0,0
12.12.2018 09:00:00 15,6 14,1 4 2 6 3 NNE 1023,9 0,0
12.12.2018 08:00:00 15,7 14,0 4 2 9 5 E 1023,3 0,0
12.12.2018 07:00:00 16,0 13,9 3 2 5 3 WNW 1023,3 -
12.12.2018 06:00:00 16,1 13,8 1 0 9 5 W 1023,1 0,0
12.12.2018 05:00:00 16,2 13,9 4 2 10 5 W 1023,0 0,0
12.12.2018 04:00:00 16,3 13,9 7 4 12 6 W 1023,3 0,0
12.12.2018 03:00:00 16,4 14,0 6 4 11 6 W 1023,2 0,0
12.12.2018 02:00:00 16,5 14,1 5 3 14 8 W 1023,3 0,0
12.12.2018 01:00:00 16,7 13,9 9 5 15 8 W 1024,0 -
12.12.2018 00:00:00 16,3 13,8 7 4 10 6 W 1023,8 0,0
11.12.2018 23:00:00 16,7 14,1 4 2 11 6 W 1024,0 0,0
11.12.2018 22:00:00 16,5 14,3 6 3 10 5 W 1024,3 0,0
11.12.2018 21:00:00 16,2 14,2 3 1 4 2 W 1024,2 0,0
11.12.2018 20:00:00 16,3 14,3 3 1 10 5 SE 1023,9 0,0
11.12.2018 19:00:00 16,4 14,4 6 4 8 5 SE 1023,6 -
11.12.2018 18:00:00 16,8 14,6 3 1 7 4 SSE 1023,4 0,0
11.12.2018 17:00:00 16,8 14,6 3 2 10 5 SSW 1023,5 0,0
11.12.2018 16:00:00 16,9 14,7 10 5 13 7 SSE 1023,2 0,0
11.12.2018 15:00:00 16,9 14,9 10 6 16 9 SE 1023,5 0,0
11.12.2018 14:00:00 16,5 14,3 15 8 22 12 SSE 1024,0 0,0
11.12.2018 13:00:00 16,5 13,8 9 5 43 23 S 1024,8 -
11.12.2018 12:00:00 16,0 13,3 14 8 19 10 SE 1025,2 0,0
11.12.2018 11:00:00 15,5 12,8 15 8 20 11 SE 1025,4 0,0
11.12.2018 10:00:00 15,2 12,5 13 7 20 11 SE 1024,8 0,0
11.12.2018 09:00:00 15,0 12,6 14 8 23 13 SE 1024,3 0,0
11.12.2018 08:00:00 15,4 12,8 18 10 24 13 SE 1024,0 0,0
11.12.2018 07:00:00 15,2 13,1 16 8 23 12 SE 1023,7 -
11.12.2018 06:00:00 14,6 12,4 16 9 23 12 SE 1023,3 0,0
11.12.2018 05:00:00 14,8 12,6 19 10 23 12 SE 1023,6 0,0
11.12.2018 04:00:00 14,6 12,4 17 9 29 15 SE 1024,0 0,0
11.12.2018 03:00:00 14,5 12,2 19 11 32 18 SSE 1024,4 0,0
11.12.2018 02:00:00 14,8 12,4 25 13 32 18 SE 1024,1 0,0
11.12.2018 01:00:00 14,7 9,0 11 6 15 8 SE 1024,7 -
11.12.2018 00:00:00 14,8 9,2 6 3 22 12 SSE 1024,7 0,0
10.12.2018 23:00:00 15,4 9,3 19 10 24 13 SE 1024,4 0,0
10.12.2018 22:00:00 15,6 9,7 12 6 14 8 SE 1024,5 0,0
10.12.2018 21:00:00 16,4 9,3 13 7 19 10 SE 1024,4 0,0
10.12.2018 20:00:00 17,1 10,4 10 5 18 10 ESE 1024,2 0,0
10.12.2018 19:00:00 18,0 9,3 15 8 31 17 ESE 1023,8 -
10.12.2018 18:00:00 19,3 9,2 21 11 29 16 ESE 1023,6 0,0
10.12.2018 17:00:00 19,7 12,7 0 0 6 3 ENE 1023,9 0,0
10.12.2018 16:00:00 20,3 12,0 3 2 12 6 W 1024,1 0,0
10.12.2018 15:00:00 19,8 11,6 8 4 18 10 WSW 1024,5 0,0
10.12.2018 14:00:00 20,0 8,7 9 5 14 8 WSW 1025,2 0,0
10.12.2018 13:00:00 17,5 11,6 6 3 8 4 N 1025,7 -
10.12.2018 12:00:00 15,8 11,2 7 4 8 5 N 1026,4 0,0
10.12.2018 11:00:00 15,4 11,0 4 2 8 4 N 1026,3 0,0
10.12.2018 10:00:00 13,8 10,0 3 2 9 5 N 1025,8 0,0
10.12.2018 09:00:00 12,8 10,6 4 2 7 4 N 1025,7 0,0
10.12.2018 08:00:00 12,4 10,4 4 2 10 6 N 1025,7 0,0
10.12.2018 07:00:00 13,1 10,8 3 1 8 4 NNE 1025,5 -
10.12.2018 06:00:00 13,0 11,1 6 3 9 5 N 1025,6 0,0
10.12.2018 05:00:00 13,3 11,2 4 2 10 5 N 1025,8 0,0
10.12.2018 04:00:00 13,8 10,4 3 2 9 5 N 1026,1 0,0
10.12.2018 03:00:00 13,7 11,0 5 3 13 7 N 1026,1 0,0
10.12.2018 02:00:00 13,5 11,3 8 4 14 7 N 1026,4 0,0
10.12.2018 01:00:00 13,8 11,1 9 5 11 6 N 1027,1 -
10.12.2018 00:00:00 14,3 10,5 5 3 13 7 NE 1027,5 0,0
09.12.2018 23:00:00 14,9 10,6 6 3 12 7 NE 1027,5 0,0
09.12.2018 22:00:00 15,0 10,8 5 3 10 5 ENE 1027,8 0,0
09.12.2018 21:00:00 15,8 10,5 7 4 11 6 ENE 1027,9 0,0
09.12.2018 20:00:00 16,6 11,1 5 3 12 7 NNE 1027,8 0,0
09.12.2018 19:00:00 17,2 12,3 7 4 10 6 N 1027,6 -
09.12.2018 18:00:00 18,1 12,7 8 4 9 5 NNW 1027,3 0,0
09.12.2018 17:00:00 18,5 13,2 6 3 10 6 NNW 1026,9 0,0
09.12.2018 16:00:00 18,9 12,4 8 4 10 5 NNW 1026,9 0,0
09.12.2018 15:00:00 19,7 11,0 3 2 9 5 NNE 1026,9 0,0
09.12.2018 14:00:00 20,8 10,9 4 2 11 6 ENE 1027,7 0,0
09.12.2018 13:00:00 17,6 13,4 4 2 10 6 N 1028,4 -
09.12.2018 12:00:00 15,8 12,2 6 3 9 5 NNW 1029,4 0,0
09.12.2018 11:00:00 13,8 11,1 6 3 9 5 N 1029,7 0,0
09.12.2018 10:00:00 12,3 10,0 4 2 9 5 N 1029,2 0,0
09.12.2018 09:00:00 10,8 9,2 7 4 12 7 N 1029,1 0,0
09.12.2018 08:00:00 11,0 9,4 7 4 11 6 N 1028,6 0,0
09.12.2018 07:00:00 11,0 9,0 6 4 12 6 NE 1028,3 -
09.12.2018 06:00:00 11,7 9,9 7 4 14 7 NNE 1028,2 0,0
09.12.2018 05:00:00 12,6 10,3 8 4 14 8 N 1028,6 0,0
09.12.2018 04:00:00 12,8 10,6 10 5 37 20 N 1028,7 0,0
09.12.2018 03:00:00 12,5 9,6 6 3 10 6 NE 1028,6 0,0
09.12.2018 02:00:00 13,3 9,9 8 4 16 8 NNE 1028,5 0,0
09.12.2018 01:00:00 13,8 9,7 11 6 19 10 NNE 1028,6 -
09.12.2018 00:00:00 14,3 9,7 11 6 16 9 NNE 1028,8 0,0
08.12.2018 23:00:00 14,5 9,6 10 6 14 8 NE 1028,8 0,0
08.12.2018 22:00:00 15,1 10,3 8 4 13 7 NNE 1028,8 0,0
08.12.2018 21:00:00 15,5 9,8 7 4 14 7 N 1028,6 0,0
08.12.2018 20:00:00 16,1 11,0 8 4 14 8 N 1028,2 0,0
08.12.2018 19:00:00 16,7 11,0 11 6 23 13 N 1027,7 -
08.12.2018 18:00:00 17,4 10,5 16 8 28 15 N 1027,4 0,0
08.12.2018 17:00:00 17,6 11,2 22 12 29 16 N 1027,2 0,0
08.12.2018 16:00:00 17,4 11,4 16 9 23 12 N 1027,3 0,0
08.12.2018 15:00:00 17,3 11,1 18 10 32 17 N 1027,2 0,0
08.12.2018 14:00:00 16,8 11,1 23 13 31 17 N 1027,7 0,0
08.12.2018 13:00:00 16,5 11,0 13 7 21 11 N 1028,6 -
08.12.2018 12:00:00 15,0 10,0 16 9 30 16 N 1029,4 0,0
08.12.2018 11:00:00 13,9 9,7 18 10 34 18 N 1029,4 0,0
08.12.2018 10:00:00 13,6 9,8 19 10 26 14 NNW 1028,7 0,0
08.12.2018 09:00:00 13,0 9,4 23 12 29 16 N 1028,4 0,0
08.12.2018 08:00:00 13,4 10,0 19 10 25 13 N 1028,0 0,0
08.12.2018 07:00:00 13,1 10,3 19 10 26 14 N 1027,6 -
08.12.2018 06:00:00 13,5 10,3 18 10 29 15 N 1027,4 0,0
08.12.2018 05:00:00 12,5 10,9 16 9 23 13 NNW 1027,7 0,0
08.12.2018 04:00:00 13,2 11,2 4 2 16 9 NNW 1028,1 0,0
08.12.2018 03:00:00 13,5 11,3 12 7 16 9 NNW 1028,3 0,0
08.12.2018 02:00:00 14,2 11,3 10 5 16 8 NNW 1028,0 0,0
08.12.2018 01:00:00 14,1 10,3 9 5 25 13 N 1028,3 -
08.12.2018 00:00:00 15,0 11,8 18 10 22 12 NNW 1028,8 0,0
07.12.2018 23:00:00 15,4 12,1 16 9 22 12 NNW 1028,8 0,0
07.12.2018 22:00:00 15,8 13,5 11 6 14 7 N 1028,9 0,0
07.12.2018 21:00:00 16,1 13,4 10 6 17 9 NNW 1028,9 0,0
07.12.2018 20:00:00 16,3 11,9 14 7 25 14 NW 1028,4 0,0
07.12.2018 19:00:00 16,6 11,6 14 8 24 13 NW 1028,1 -
07.12.2018 18:00:00 16,9 11,8 7 4 16 9 W 1027,2 0,0
07.12.2018 17:00:00 18,7 11,0 9 5 18 10 NW 1027,5 0,0
07.12.2018 16:00:00 18,3 12,5 8 4 15 8 NW 1027,5 0,0
07.12.2018 15:00:00 16,8 12,5 7 4 13 7 W 1027,8 0,0
07.12.2018 14:00:00 14,6 13,2 1 1 13 7 NNE 1028,5 0,0
07.12.2018 13:00:00 14,7 13,0 6 3 8 5 N 1028,8 -
07.12.2018 12:00:00 14,6 13,7 0 0 7 4 S 1029,2 0,0
07.12.2018 11:00:00 14,0 13,1 0 0 5 3 E 1028,9 0,0
07.12.2018 10:00:00 13,2 12,2 2 1 6 4 NNE 1028,5 0,0

tt = temperature
td = dewpoint
ff = wind speed
fx = gusts
dd = wind direction
ppp = reduced air pressure
rr = precipitation

Next stations